Time;durP1;ratioP1;P1;durP2;ratioP2;P2;SDS_P1;SDS_P2;PMS_P1;PMS_P2;Temp;Humidity;BMP_temperature;BMP_pressure;BME280_temperature;BME280_humidity;BME280_pressure;Samples;Min_cycle;Max_cycle;Signal;HPM_P1;HPM_P2
2022/12/14 05:00:21;;;;;;;25.33;22.47;;;-0.80;99.90;;;;;;6175555;22;20407;-65
2022/12/14 05:03:10;;;;;;;24.87;22.47;;;-0.80;99.90;;;;;;6249955;23;20399;-66
2022/12/14 05:05:45;;;;;;;23.80;20.93;;;-0.80;99.90;;;;;;6243160;23;20407;-66
2022/12/14 05:08:23;;;;;;;23.47;21.07;;;-0.80;99.90;;;;;;6247232;23;20395;-66
2022/12/14 05:10:56;;;;;;;23.97;21.47;;;-0.80;99.90;;;;;;6239028;23;20470;-65
2022/12/14 05:13:26;;;;;;;25.87;23.17;;;-0.80;99.90;;;;;;6217694;23;20396;-66
2022/12/14 05:15:56;;;;;;;26.33;23.50;;;-0.70;99.90;;;;;;6217802;23;20453;-66
2022/12/14 05:18:23;;;;;;;26.90;23.73;;;-0.70;99.90;;;;;;6218343;23;20695;-66
2022/12/14 05:20:51;;;;;;;25.50;22.80;;;-0.70;99.90;;;;;;6216855;23;20423;-67
2022/12/14 05:23:18;;;;;;;26.10;23.30;;;-0.70;99.90;;;;;;6216538;23;20736;-66
2022/12/14 05:25:44;;;;;;;26.70;23.70;;;-0.70;99.90;;;;;;6216463;23;20459;-66
2022/12/14 05:28:12;;;;;;;26.47;23.77;;;-0.80;99.90;;;;;;6216415;23;20419;-67
2022/12/14 05:30:39;;;;;;;26.30;23.60;;;-0.70;99.90;;;;;;6216266;23;20432;-66
2022/12/14 05:33:14;;;;;;;27.90;22.50;;;-0.70;99.90;;;;;;6216330;23;20420;-67
2022/12/14 05:35:41;;;;;;;25.97;23.30;;;-0.80;99.90;;;;;;6218601;23;20815;-66
2022/12/14 05:38:08;;;;;;;25.00;22.40;;;-0.80;99.90;;;;;;6218301;23;20411;-66
2022/12/14 05:40:35;;;;;;;26.20;23.60;;;-0.80;99.90;;;;;;6217782;23;20939;-66
2022/12/14 05:43:05;;;;;;;26.07;23.37;;;-0.70;99.90;;;;;;6218343;23;20473;-67
2022/12/14 05:45:32;;;;;;;26.50;23.70;;;-0.70;99.90;;;;;;6218360;23;20439;-66
2022/12/14 05:47:58;;;;;;;24.63;22.23;;;-0.80;99.90;;;;;;6218338;23;20430;-66
2022/12/14 05:50:26;;;;;;;26.43;23.73;;;-0.80;99.90;;;;;;6218096;23;20799;-66
2022/12/14 05:52:54;;;;;;;27.33;24.27;;;-0.80;99.90;;;;;;6218089;23;20415;-66
2022/12/14 05:55:21;;;;;;;26.40;23.70;;;-0.80;99.90;;;;;;6218215;23;20485;-66
2022/12/14 05:57:49;;;;;;;25.23;22.70;;;-0.80;99.90;;;;;;6218920;23;20446;-66
2022/12/14 06:00:16;;;;;;;27.10;24.40;;;-0.80;99.90;;;;;;6218236;23;20411;-66
2022/12/14 06:02:42;;;;;;;25.93;23.27;;;-0.80;99.90;;;;;;6218085;23;20411;-66
2022/12/14 06:05:09;;;;;;;26.47;23.90;;;-0.80;99.90;;;;;;6217834;23;20785;-66
2022/12/14 06:07:38;;;;;;;27.00;24.20;;;-0.80;99.90;;;;;;6218209;23;20396;-66
2022/12/14 06:10:05;;;;;;;28.37;25.37;;;-0.80;99.90;;;;;;6217682;23;20412;-67
2022/12/14 06:12:32;;;;;;;28.10;25.13;;;-0.80;99.90;;;;;;6218149;23;20470;-66
2022/12/14 06:14:59;;;;;;;28.33;24.90;;;-0.80;99.90;;;;;;6217852;23;20758;-66
2022/12/14 06:17:25;;;;;;;27.40;24.40;;;-0.70;99.90;;;;;;6217667;23;20415;-66
2022/12/14 06:19:52;;;;;;;26.57;23.90;;;-0.70;99.90;;;;;;6218097;23;20411;-66
2022/12/14 06:22:19;;;;;;;27.13;24.43;;;-0.60;99.90;;;;;;6217842;23;20431;-66
2022/12/14 06:24:47;;;;;;;27.10;24.33;;;-0.50;99.90;;;;;;6216680;23;20422;-66
2022/12/14 06:27:13;;;;;;;26.00;23.43;;;-0.50;99.90;;;;;;6217704;23;20411;-65
2022/12/14 06:29:40;;;;;;;26.10;23.40;;;-0.40;99.90;;;;;;6217802;23;20462;-65
2022/12/14 06:32:06;;;;;;;27.97;24.90;;;-0.40;99.90;;;;;;6217841;23;20431;-65
2022/12/14 06:34:33;;;;;;;27.50;24.53;;;-0.40;99.90;;;;;;6217475;23;21029;-69
2022/12/14 06:37:00;;;;;;;27.80;24.90;;;-0.40;99.90;;;;;;6217804;23;20412;-66
2022/12/14 06:39:26;;;;;;;28.90;25.80;;;-0.40;99.90;;;;;;6217673;23;20908;-66
2022/12/14 06:41:54;;;;;;;33.83;26.10;;;-0.40;99.90;;;;;;6217790;23;20474;-66
2022/12/14 06:44:21;;;;;;;30.30;27.17;;;-0.50;99.90;;;;;;6218023;23;20419;-66
2022/12/14 06:46:48;;;;;;;30.40;27.20;;;-0.60;99.90;;;;;;6217237;23;20438;-66
2022/12/14 06:49:16;;;;;;;30.47;27.27;;;-0.70;99.90;;;;;;6217696;23;20775;-66
2022/12/14 06:51:43;;;;;;;31.40;28.20;;;-0.60;99.90;;;;;;6217304;23;20486;-67
2022/12/14 06:54:11;;;;;;;31.13;27.93;;;-0.70;99.90;;;;;;6217490;23;20416;-67
2022/12/14 06:56:39;;;;;;;34.50;30.90;;;-0.70;99.90;;;;;;6217207;23;20509;-67
2022/12/14 06:59:08;;;;;;;31.50;28.40;;;-0.70;99.90;;;;;;6217441;23;20411;-68
2022/12/14 07:01:35;;;;;;;31.97;28.30;;;-0.70;99.90;;;;;;6217035;23;20470;-67
2022/12/14 07:04:02;;;;;;;32.33;28.87;;;-0.30;99.90;;;;;;6217703;23;20423;-67
2022/12/14 07:06:34;;;;;;;36.10;31.60;;;-0.40;99.90;;;;;;6217625;23;20408;-67
2022/12/14 07:09:01;;;;;;;32.10;28.77;;;-0.40;99.90;;;;;;6217875;23;20396;-68
2022/12/14 07:11:29;;;;;;;32.73;29.33;;;-0.30;99.90;;;;;;6217432;23;20494;-67
2022/12/14 07:13:59;;;;;;;35.47;31.50;;;-0.30;99.90;;;;;;6217614;23;20412;-67
2022/12/14 07:16:29;;;;;;;36.30;32.50;;;-0.40;99.90;;;;;;6217368;23;20443;-67
2022/12/14 07:18:56;;;;;;;34.87;31.20;;;-0.40;99.90;;;;;;6217837;23;20451;-67
2022/12/14 07:21:23;;;;;;;35.27;31.50;;;-0.50;99.90;;;;;;6217206;23;20511;-68
2022/12/14 07:23:51;;;;;;;36.20;30.87;;;-0.50;99.90;;;;;;6217663;23;20415;-67
2022/12/14 07:26:19;;;;;;;36.77;33.07;;;-0.60;99.90;;;;;;6217422;23;20752;-68
2022/12/14 07:28:47;;;;;;;36.30;32.30;;;-0.60;99.90;;;;;;6217666;23;20446;-67
2022/12/14 07:31:16;;;;;;;39.10;32.13;;;-0.70;99.90;;;;;;6217354;23;20489;-67
2022/12/14 07:33:44;;;;;;;35.77;30.43;;;-0.70;99.90;;;;;;6217429;23;20419;-68
2022/12/14 07:36:14;;;;;;;37.87;33.80;;;-0.70;99.90;;;;;;6217517;23;20431;-67
2022/12/14 07:38:42;;;;;;;36.70;32.87;;;-0.70;99.90;;;;;;6217851;23;20412;-67
2022/12/14 07:41:11;;;;;;;37.00;32.20;;;-0.80;99.90;;;;;;6217474;23;20432;-67
2022/12/14 07:43:38;;;;;;;37.60;33.80;;;-0.70;99.90;;;;;;6217544;23;20412;-68
2022/12/14 07:46:06;;;;;;;34.30;29.70;;;-0.70;99.90;;;;;;6217717;23;20412;-67
2022/12/14 07:48:34;;;;;;;35.37;31.57;;;-0.70;99.90;;;;;;6217870;23;20412;-67
2022/12/14 07:51:03;;;;;;;37.57;31.03;;;-0.70;99.90;;;;;;6217657;23;20435;-67
2022/12/14 07:53:30;;;;;;;35.10;31.43;;;-0.70;99.90;;;;;;6219359;23;20418;-67
2022/12/14 07:56:02;;;;;;;35.97;31.30;;;-0.70;99.90;;;;;;6218685;23;20431;-68
2022/12/14 07:58:29;;;;;;;36.57;32.50;;;-0.70;99.90;;;;;;6219566;23;20873;-65
2022/12/14 08:00:56;;;;;;;35.20;31.47;;;-0.60;99.90;;;;;;6222637;23;20527;-64
2022/12/14 08:03:22;;;;;;;36.10;31.60;;;-0.60;99.90;;;;;;6222614;23;20411;-64
2022/12/14 08:05:49;;;;;;;37.67;33.60;;;-0.50;99.90;;;;;;6224224;23;20414;-64
2022/12/14 08:08:17;;;;;;;34.43;30.50;;;-0.50;99.90;;;;;;6221871;23;20419;-66
2022/12/14 08:10:48;;;;;;;35.63;31.90;;;-0.40;99.90;;;;;;6218476;23;20752;-65
2022/12/14 08:13:15;;;;;;;34.60;30.87;;;-0.40;99.90;;;;;;6217250;23;20400;-67
2022/12/14 08:15:41;;;;;;;36.83;32.63;;;-0.40;99.90;;;;;;6216820;23;20435;-67
2022/12/14 08:18:08;;;;;;;37.27;31.60;;;-0.30;99.90;;;;;;6216645;23;20904;-67
2022/12/14 08:20:35;;;;;;;36.60;32.63;;;-0.20;99.90;;;;;;6216867;23;20432;-67
2022/12/14 08:23:01;;;;;;;35.70;32.00;;;-0.20;99.90;;;;;;6216877;23;20412;-67
2022/12/14 08:25:29;;;;;;;34.20;30.57;;;-0.20;99.90;;;;;;6216773;23;20458;-68
2022/12/14 08:27:56;;;;;;;35.10;31.37;;;-0.10;99.90;;;;;;6216966;23;20411;-65
2022/12/14 08:30:23;;;;;;;36.17;32.27;;;-0.10;99.90;;;;;;6217976;23;20412;-64
2022/12/14 08:32:49;;;;;;;37.93;33.77;;;-0.10;99.90;;;;;;6217149;23;20430;-64
2022/12/14 08:35:16;;;;;;;36.57;32.57;;;-0.10;99.90;;;;;;6216265;23;20948;-64
2022/12/14 08:37:43;;;;;;;39.30;33.87;;;-0.10;99.90;;;;;;6216889;23;20460;-64
2022/12/14 08:40:11;;;;;;;35.87;32.00;;;-0.10;99.90;;;;;;6216954;23;20412;-64
2022/12/14 08:42:39;;;;;;;37.00;32.43;;;0.00;99.90;;;;;;6216928;23;20461;-68
2022/12/14 08:45:07;;;;;;;38.40;32.60;;;0.10;99.90;;;;;;6216802;23;20427;-68
2022/12/14 08:47:33;;;;;;;37.40;33.50;;;0.20;99.90;;;;;;6216749;23;20470;-68
2022/12/14 08:50:00;;;;;;;37.73;32.40;;;0.20;99.90;;;;;;6216828;23;20412;-68
2022/12/14 08:52:27;;;;;;;36.93;32.50;;;0.30;99.90;;;;;;6216891;23;20432;-68
2022/12/14 08:54:54;;;;;;;38.67;33.63;;;0.40;99.90;;;;;;6216883;23;20732;-68
2022/12/14 08:57:20;;;;;;;39.33;34.93;;;0.40;99.90;;;;;;6216841;23;20412;-68
2022/12/14 08:59:48;;;;;;;40.53;34.77;;;0.30;99.90;;;;;;6216457;23;20896;-67
2022/12/14 09:02:15;;;;;;;43.57;36.27;;;0.30;99.90;;;;;;6216197;23;20440;-68
2022/12/14 09:04:42;;;;;;;39.30;34.17;;;0.40;99.90;;;;;;6216736;23;20411;-68
2022/12/14 09:07:08;;;;;;;42.00;36.30;;;0.40;99.90;;;;;;6216505;23;20412;-68
2022/12/14 09:09:36;;;;;;;39.77;34.30;;;0.40;99.90;;;;;;6216651;23;20411;-68
2022/12/14 09:12:05;;;;;;;41.20;36.27;;;0.50;99.90;;;;;;6216327;23;20760;-68
2022/12/14 09:14:32;;;;;;;44.87;37.90;;;0.40;99.90;;;;;;6216650;23;20466;-68
2022/12/14 09:17:01;;;;;;;43.37;37.47;;;0.50;99.90;;;;;;6216593;23;20438;-68
2022/12/14 09:19:28;;;;;;;38.83;33.80;;;0.50;99.90;;;;;;6216696;23;20419;-68
2022/12/14 09:21:55;;;;;;;40.20;35.20;;;0.50;99.90;;;;;;6216535;23;20936;-68
2022/12/14 09:24:23;;;;;;;43.23;36.30;;;0.50;99.90;;;;;;6217382;23;20769;-67
2022/12/14 09:26:50;;;;;;;42.17;36.47;;;0.50;99.90;;;;;;6217319;23;20407;-68
2022/12/14 09:29:18;;;;;;;41.70;35.50;;;0.40;99.90;;;;;;6217444;23;20434;-68
2022/12/14 09:31:45;;;;;;;46.23;38.70;;;0.40;99.90;;;;;;6216576;23;20431;-68
2022/12/14 09:34:13;;;;;;;47.23;36.53;;;0.40;99.90;;;;;;6216570;23;20416;-68
2022/12/14 09:36:40;;;;;;;41.93;35.90;;;0.30;99.90;;;;;;6216447;23;20436;-68
2022/12/14 09:39:07;;;;;;;38.07;33.93;;;0.30;99.90;;;;;;6216310;23;20418;-68
2022/12/14 09:41:55;;;;;;;41.13;35.87;;;0.30;99.90;;;;;;6216147;23;20439;-68
2022/12/14 09:44:28;;;;;;;40.30;35.63;;;0.30;99.90;;;;;;6216295;23;20431;-68
2022/12/14 09:47:01;;;;;;;40.40;36.10;;;0.40;99.90;;;;;;6216204;23;20768;-68
2022/12/14 09:49:32;;;;;;;42.20;37.50;;;0.40;99.90;;;;;;6216170;23;20400;-68
2022/12/14 09:52:01;;;;;;;42.70;37.17;;;0.40;99.90;;;;;;6216146;23;20967;-67
2022/12/14 09:54:31;;;;;;;46.30;39.87;;;0.40;99.90;;;;;;6226496;23;20442;-68
2022/12/14 09:57:03;;;;;;;53.47;45.30;;;0.40;99.90;;;;;;6216170;23;20470;-68
2022/12/14 09:59:32;;;;;;;53.70;45.27;;;0.40;99.90;;;;;;6216192;23;20475;-68
2022/12/14 10:02:16;;;;;;;49.20;43.17;;;0.40;99.90;;;;;;6215709;23;20439;-68
2022/12/14 10:04:52;;;;;;;50.40;43.47;;;0.40;99.90;;;;;;6216141;23;20446;-67
2022/12/14 10:07:23;;;;;;;50.53;44.00;;;0.40;99.90;;;;;;6216885;23;20392;-67
2022/12/14 10:09:56;;;;;;;55.80;45.90;;;0.30;99.90;;;;;;6216384;23;20427;-67
2022/12/14 10:12:41;;;;;;;55.07;45.30;;;0.40;99.90;;;;;;6216126;23;20439;-66
2022/12/14 10:15:20;;;;;;;50.03;41.80;;;0.80;99.90;;;;;;6216549;23;20396;-67
2022/12/14 10:18:09;;;;;;;46.90;40.67;;;1.00;99.90;;;;;;6216278;23;20388;-68
2022/12/14 10:20:47;;;;;;;46.53;40.80;;;1.10;99.90;;;;;;6217024;23;20427;-67
2022/12/14 10:23:18;;;;;;;49.27;42.30;;;1.10;99.90;;;;;;6218000;23;20387;-67
2022/12/14 10:25:47;;;;;;;49.43;40.63;;;1.10;99.90;;;;;;6217740;23;20392;-67
2022/12/14 10:28:18;;;;;;;46.57;38.70;;;1.10;99.90;;;;;;6217900;23;20462;-67
2022/12/14 10:30:46;;;;;;;45.53;39.10;;;1.20;99.90;;;;;;6217380;23;20454;-67
2022/12/14 10:33:20;;;;;;;48.33;40.50;;;1.20;99.90;;;;;;6217389;23;20896;-67
2022/12/14 10:35:51;;;;;;;45.53;40.40;;;1.10;99.90;;;;;;6217789;23;20419;-67
2022/12/14 10:38:24;;;;;;;45.90;39.10;;;1.10;99.90;;;;;;6217953;23;20424;-67
2022/12/14 10:40:54;;;;;;;49.43;42.60;;;1.00;99.90;;;;;;6218162;23;20431;-67
2022/12/14 10:43:33;;;;;;;52.73;42.77;;;1.00;99.90;;;;;;6217934;23;20452;-67
2022/12/14 10:46:07;;;;;;;54.83;45.00;;;1.00;99.90;;;;;;6218949;23;20446;-68
2022/12/14 10:48:45;;;;;;;51.40;42.43;;;1.00;99.90;;;;;;6218803;23;20396;-67
2022/12/14 10:51:18;;;;;;;49.60;43.20;;;1.00;99.90;;;;;;6220134;23;20463;-66
2022/12/14 10:53:50;;;;;;;46.27;40.03;;;1.10;99.90;;;;;;6220149;23;20396;-66
2022/12/14 10:56:21;;;;;;;46.87;39.93;;;1.10;99.90;;;;;;6220394;23;20424;-67
2022/12/14 10:59:24;;;;;;;50.77;43.00;;;1.20;99.90;;;;;;6218970;23;20400;-67
2022/12/14 11:01:54;;;;;;;44.57;39.53;;;1.20;99.90;;;;;;6217351;23;20439;-66
2022/12/14 11:04:29;;;;;;;52.23;43.10;;;1.20;99.90;;;;;;6217701;23;20904;-68
2022/12/14 11:06:58;;;;;;;50.17;41.43;;;1.10;99.90;;;;;;6217625;23;20465;-67
2022/12/14 11:09:26;;;;;;;48.40;41.17;;;1.20;99.90;;;;;;6228198;23;20411;-65
2022/12/14 11:11:59;;;;;;;42.07;37.30;;;1.30;99.90;;;;;;6217932;23;20485;-64
2022/12/14 11:14:26;;;;;;;43.97;39.27;;;1.30;99.90;;;;;;6217667;23;20391;-64
2022/12/14 11:16:53;;;;;;;46.37;40.37;;;1.20;99.90;;;;;;6217691;23;20468;-64
2022/12/14 11:19:21;;;;;;;44.00;38.27;;;1.20;99.90;;;;;;6217714;23;20462;-65
2022/12/14 11:21:50;;;;;;;43.83;39.03;;;1.30;99.90;;;;;;6217418;23;20436;-64
2022/12/14 11:24:30;;;;;;;42.53;37.93;;;1.30;99.90;;;;;;6217299;23;20912;-64
2022/12/14 11:27:00;;;;;;;44.97;38.57;;;1.30;99.90;;;;;;6218075;23;20396;-64
2022/12/14 11:29:32;;;;;;;44.97;40.07;;;1.40;99.90;;;;;;6217519;23;20396;-64
2022/12/14 11:31:59;;;;;;;41.40;35.73;;;1.40;99.90;;;;;;6216809;23;20940;-65
2022/12/14 11:34:31;;;;;;;41.60;37.07;;;1.60;99.90;;;;;;6217631;23;20412;-64
2022/12/14 11:37:11;;;;;;;41.53;35.97;;;1.70;99.90;;;;;;6217333;23;20420;-64
2022/12/14 11:39:41;;;;;;;41.23;35.80;;;1.70;99.90;;;;;;6217599;23;20430;-65
2022/12/14 11:42:16;;;;;;;39.13;34.80;;;1.80;99.90;;;;;;6217901;23;20431;-65
2022/12/14 11:44:42;;;;;;;39.67;35.47;;;1.90;99.90;;;;;;6217156;23;20399;-65
2022/12/14 11:47:14;;;;;;;38.37;34.20;;;1.90;99.90;;;;;;6217777;23;20408;-64
2022/12/14 11:49:44;;;;;;;50.20;40.90;;;1.80;99.90;;;;;;6217758;23;20400;-64
2022/12/14 11:52:13;;;;;;;48.83;41.47;;;1.70;99.90;;;;;;6218752;23;20522;-64
2022/12/14 11:54:43;;;;;;;41.60;36.17;;;1.80;99.90;;;;;;6217659;23;20412;-64
2022/12/14 11:57:19;;;;;;;43.57;38.80;;;1.80;99.90;;;;;;6217093;23;20435;-64
2022/12/14 11:59:49;;;;;;;39.87;35.20;;;1.80;99.90;;;;;;6217530;23;20396;-64
2022/12/14 12:02:21;;;;;;;41.50;36.73;;;1.90;99.90;;;;;;6216582;23;20447;-64
2022/12/14 12:04:52;;;;;;;40.90;36.47;;;2.00;99.90;;;;;;6216912;23;20760;-64
2022/12/14 12:07:25;;;;;;;41.07;35.63;;;2.00;99.90;;;;;;6227757;23;20408;-64
2022/12/14 12:09:54;;;;;;;41.40;37.00;;;2.10;99.90;;;;;;6216859;23;20947;-64
2022/12/14 12:12:23;;;;;;;37.27;33.27;;;2.10;99.90;;;;;;6217975;23;20432;-64
2022/12/14 12:14:55;;;;;;;42.40;37.73;;;2.20;99.90;;;;;;6217350;23;20447;-64
2022/12/14 12:17:37;;;;;;;44.03;36.00;;;2.20;99.90;;;;;;6217254;23;20423;-64
2022/12/14 12:20:20;;;;;;;41.23;36.00;;;2.20;99.90;;;;;;6217529;23;20396;-64
2022/12/14 12:22:49;;;;;;;41.47;36.97;;;2.30;99.90;;;;;;6217626;23;20475;-64
2022/12/14 12:25:22;;;;;;;40.37;36.00;;;2.30;99.90;;;;;;6217027;23;20415;-63
2022/12/14 12:27:56;;;;;;;39.00;34.93;;;2.30;99.90;;;;;;6217239;23;20400;-64
2022/12/14 12:30:27;;;;;;;41.73;37.33;;;2.30;99.90;;;;;;6216734;23;20861;-64
2022/12/14 12:32:56;;;;;;;42.20;37.60;;;2.30;99.90;;;;;;6216960;23;20454;-64
2022/12/14 12:35:31;;;;;;;45.90;39.27;;;2.10;99.90;;;;;;6217161;23;20469;-64
2022/12/14 12:38:03;;;;;;;47.87;40.20;;;2.00;99.90;;;;;;6217049;23;20419;-64
2022/12/14 12:40:34;;;;;;;45.50;39.70;;;1.90;99.90;;;;;;6216883;23;20396;-64
2022/12/14 12:43:05;;;;;;;44.13;38.90;;;1.80;99.90;;;;;;6217909;23;20450;-64
2022/12/14 12:45:37;;;;;;;46.40;38.80;;;1.70;99.90;;;;;;6224646;23;20400;-64
2022/12/14 12:48:10;;;;;;;48.10;38.93;;;1.70;99.90;;;;;;6231613;23;20392;-64
2022/12/14 12:50:42;;;;;;;46.23;38.50;;;1.70;99.90;;;;;;6223388;23;20502;-64
2022/12/14 12:53:13;;;;;;;51.63;40.23;;;1.50;99.90;;;;;;6216391;23;20403;-64
2022/12/14 12:55:45;;;;;;;52.90;43.57;;;1.50;99.90;;;;;;6216646;23;20397;-64
2022/12/14 12:58:20;;;;;;;53.07;42.73;;;1.40;99.90;;;;;;6217164;23;20715;-64
2022/12/14 13:00:50;;;;;;;55.47;42.70;;;1.40;99.90;;;;;;6216441;23;20474;-64
2022/12/14 13:03:22;;;;;;;54.50;45.00;;;1.30;99.90;;;;;;6216615;23;20396;-64
2022/12/14 13:05:50;;;;;;;50.83;42.30;;;1.40;99.90;;;;;;6216673;23;20462;-64
2022/12/14 13:08:26;;;;;;;49.20;41.60;;;1.40;99.90;;;;;;6216405;23;20788;-64
2022/12/14 13:10:58;;;;;;;52.70;43.37;;;1.40;99.90;;;;;;6216652;23;20435;-64
2022/12/14 13:13:29;;;;;;;49.23;42.10;;;1.30;99.90;;;;;;6216358;23;20857;-64
2022/12/14 13:16:01;;;;;;;50.33;41.00;;;1.30;99.90;;;;;;6216737;23;20400;-63
2022/12/14 13:18:31;;;;;;;49.83;41.30;;;1.30;99.90;;;;;;6216452;23;21011;-64
2022/12/14 13:21:01;;;;;;;55.10;42.77;;;1.30;99.90;;;;;;6216162;23;20438;-64
2022/12/14 13:23:29;;;;;;;52.50;43.20;;;1.30;99.90;;;;;;6216046;23;20878;-64
2022/12/14 13:26:15;;;;;;;53.97;45.00;;;1.20;99.90;;;;;;6216332;23;20411;-64
2022/12/14 13:28:57;;;;;;;55.43;43.67;;;1.20;99.90;;;;;;6217055;23;20884;-64
2022/12/14 13:31:35;;;;;;;54.43;44.63;;;1.20;99.90;;;;;;6217691;23;20436;-64
2022/12/14 13:34:12;;;;;;;56.30;44.57;;;1.20;99.90;;;;;;6217050;23;20427;-65
2022/12/14 13:37:15;;;;;;;55.53;45.77;;;1.20;99.90;;;;;;6216198;23;20777;-64
2022/12/14 13:40:09;;;;;;;52.87;43.67;;;1.20;99.90;;;;;;6215336;23;20430;-64
2022/12/14 13:42:47;;;;;;;56.80;47.00;;;1.10;99.90;;;;;;6203334;23;20462;-65
2022/12/14 13:45:17;;;;;;;56.03;45.10;;;1.10;99.90;;;;;;6216343;23;20391;-65
2022/12/14 13:47:50;;;;;;;56.57;45.90;;;1.00;99.90;;;;;;6216262;23;20395;-65
2022/12/14 13:50:26;;;;;;;51.53;43.60;;;1.10;99.90;;;;;;6216382;23;20864;-65
2022/12/14 13:52:59;;;;;;;53.87;46.10;;;1.00;99.90;;;;;;6216323;23;20932;-64
2022/12/14 13:55:32;;;;;;;56.20;45.80;;;0.90;99.90;;;;;;6217765;23;20434;-64
2022/12/14 13:58:28;;;;;;;57.57;48.10;;;0.80;99.90;;;;;;6218267;23;20419;-64
2022/12/14 14:00:58;;;;;;;54.77;44.07;;;0.80;99.90;;;;;;6192175;23;20534;-65
2022/12/14 14:03:48;;;;;;;54.83;45.23;;;0.90;99.90;;;;;;6217816;23;20407;-64
2022/12/14 14:06:35;;;;;;;57.30;46.87;;;0.80;99.90;;;;;;6218122;23;20398;-64
2022/12/14 14:09:34;;;;;;;55.83;45.00;;;0.80;99.90;;;;;;6218243;23;20475;-64
2022/12/14 14:12:03;;;;;;;57.60;45.00;;;0.70;99.90;;;;;;6202593;23;20431;-65
2022/12/14 14:14:47;;;;;;;58.50;45.60;;;0.70;99.90;;;;;;6217828;23;20411;-64
2022/12/14 14:17:21;;;;;;;59.73;48.27;;;0.70;99.90;;;;;;6219139;23;20474;-64
2022/12/14 14:19:51;;;;;;;61.30;47.93;;;0.70;99.90;;;;;;6221246;23;20395;-65
2022/12/14 14:22:22;;;;;;;61.50;47.60;;;0.60;99.90;;;;;;6219530;23;20431;-65
2022/12/14 14:25:30;;;;;;;64.73;50.03;;;0.60;99.90;;;;;;6219495;23;20697;-65
2022/12/14 14:27:59;;;;;;;63.50;50.70;;;0.60;99.90;;;;;;6228593;23;20486;-65
2022/12/14 14:30:32;;;;;;;62.93;50.13;;;0.50;99.90;;;;;;6218000;23;20407;-65
2022/12/14 14:33:00;;;;;;;65.00;51.00;;;0.40;99.90;;;;;;6218299;23;20398;-64
2022/12/14 14:35:30;;;;;;;64.87;47.87;;;0.40;99.90;;;;;;6217950;23;20466;-65
2022/12/14 14:37:59;;;;;;;61.47;47.93;;;0.40;99.90;;;;;;6218200;23;20430;-64
2022/12/14 14:40:29;;;;;;;65.40;49.83;;;0.30;99.90;;;;;;6218089;23;20422;-65
2022/12/14 14:43:04;;;;;;;61.13;45.20;;;0.40;99.90;;;;;;6218270;23;20412;-64
2022/12/14 14:45:39;;;;;;;55.90;46.40;;;0.40;99.90;;;;;;6218046;23;20396;-64
2022/12/14 14:48:21;;;;;;;55.57;46.37;;;0.40;99.90;;;;;;6217674;23;20770;-64
2022/12/14 14:50:49;;;;;;;56.00;44.50;;;0.40;99.90;;;;;;6218540;23;20432;-64
2022/12/14 14:53:29;;;;;;;59.43;45.57;;;0.30;99.90;;;;;;6217743;23;20416;-65
2022/12/14 14:56:10;;;;;;;60.13;47.80;;;0.30;99.90;;;;;;6218317;23;20467;-64
2022/12/14 14:58:38;;;;;;;54.23;43.27;;;0.20;99.90;;;;;;6217746;23;20419;-64
2022/12/14 15:01:23;;;;;;;58.13;47.10;;;0.30;99.90;;;;;;6217567;23;20506;-65
2022/12/14 15:04:04;;;;;;;54.70;42.73;;;0.20;99.90;;;;;;6217800;23;20486;-65
2022/12/14 15:06:32;;;;;;;49.83;42.60;;;0.30;99.90;;;;;;6217143;23;20396;-63
2022/12/14 15:09:04;;;;;;;55.10;45.50;;;0.30;99.90;;;;;;6217599;23;20489;-63
2022/12/14 15:11:40;;;;;;;57.80;46.63;;;0.30;99.90;;;;;;6218343;23;20431;-64
2022/12/14 15:14:16;;;;;;;57.67;45.93;;;0.20;99.90;;;;;;6217478;23;20403;-64
2022/12/14 15:16:45;;;;;;;60.20;47.03;;;0.20;99.90;;;;;;6217410;23;20396;-64
2022/12/14 15:19:25;;;;;;;58.67;44.90;;;0.20;99.90;;;;;;6217185;23;20436;-64
2022/12/14 15:21:55;;;;;;;62.40;47.30;;;0.20;99.90;;;;;;6217646;23;20431;-64
2022/12/14 15:24:23;;;;;;;64.10;47.17;;;0.20;99.90;;;;;;6217828;23;20411;-64
2022/12/14 15:26:50;;;;;;;62.87;50.00;;;0.30;99.90;;;;;;6217408;23;20498;-64
2022/12/14 15:29:21;;;;;;;58.80;47.83;;;0.20;99.90;;;;;;6217439;23;20466;-64
2022/12/14 15:31:51;;;;;;;61.00;49.23;;;0.20;99.90;;;;;;6218245;23;20439;-64
2022/12/14 15:34:20;;;;;;;56.43;47.23;;;0.30;99.90;;;;;;6217069;23;20396;-64
2022/12/14 15:36:47;;;;;;;56.70;46.67;;;0.30;99.90;;;;;;6217576;23;20411;-64
2022/12/14 15:39:36;;;;;;;57.50;47.30;;;0.30;99.90;;;;;;6217604;23;20486;-64
2022/12/14 15:42:11;;;;;;;60.20;47.30;;;0.30;99.90;;;;;;6217248;23;20940;-64
2022/12/14 15:44:42;;;;;;;57.63;48.40;;;0.30;99.90;;;;;;6217639;23;20772;-64
2022/12/14 15:47:23;;;;;;;59.10;46.07;;;0.40;99.90;;;;;;6217476;23;20405;-64
2022/12/14 15:49:49;;;;;;;58.60;47.07;;;0.40;99.90;;;;;;6228717;23;20899;-64
2022/12/14 15:52:17;;;;;;;60.80;47.20;;;0.50;99.90;;;;;;6225039;23;20917;-64
2022/12/14 15:54:44;;;;;;;55.80;46.27;;;0.50;99.90;;;;;;6232417;23;20412;-64
2022/12/14 15:57:16;;;;;;;54.10;45.73;;;0.50;99.90;;;;;;6223751;23;20515;-63
2022/12/14 15:59:46;;;;;;;61.53;48.43;;;0.50;99.90;;;;;;6217441;23;20396;-63
2022/12/14 16:02:23;;;;;;;55.47;44.53;;;0.50;99.90;;;;;;6216835;23;20476;-67
2022/12/14 16:04:50;;;;;;;56.33;44.63;;;0.50;99.90;;;;;;6217087;23;20394;-67
2022/12/14 16:07:22;;;;;;;63.57;46.10;;;0.50;99.90;;;;;;6216976;23;20430;-67
2022/12/14 16:09:51;;;;;;;50.13;42.97;;;0.50;99.90;;;;;;6217067;23;20768;-68
2022/12/14 16:12:23;;;;;;;48.13;41.80;;;0.50;99.90;;;;;;6216634;23;20467;-67
2022/12/14 16:14:55;;;;;;;49.00;39.53;;;0.50;99.90;;;;;;6217123;23;20415;-68
2022/12/14 16:17:28;;;;;;;47.67;39.03;;;0.50;99.90;;;;;;6216979;23;20474;-65
2022/12/14 16:19:57;;;;;;;50.23;41.70;;;0.50;99.90;;;;;;6217554;23;20396;-64
2022/12/14 16:22:25;;;;;;;45.70;40.57;;;0.40;99.90;;;;;;6216921;23;20439;-65
2022/12/14 16:25:18;;;;;;;47.23;39.83;;;0.40;99.90;;;;;;6216720;23;20924;-64
2022/12/14 16:27:47;;;;;;;53.37;41.90;;;0.40;99.90;;;;;;6216704;23;20427;-64
2022/12/14 16:30:23;;;;;;;46.90;38.60;;;0.40;99.90;;;;;;6217100;23;20462;-65
2022/12/14 16:33:03;;;;;;;48.03;39.63;;;0.40;99.90;;;;;;6217277;23;20446;-64
2022/12/14 16:35:34;;;;;;;46.53;40.60;;;0.40;99.90;;;;;;6218925;23;20400;-64
2022/12/14 16:38:07;;;;;;;46.07;38.70;;;0.30;99.90;;;;;;6220138;23;20474;-64
2022/12/14 16:40:35;;;;;;;46.90;39.53;;;0.30;99.90;;;;;;6222430;23;20399;-65
2022/12/14 16:43:03;;;;;;;49.07;38.10;;;0.30;99.90;;;;;;6220246;23;20412;-65
2022/12/14 16:46:06;;;;;;;45.30;38.63;;;0.30;99.90;;;;;;6217393;23;20463;-64
2022/12/14 16:48:37;;;;;;;52.77;41.73;;;0.40;99.90;;;;;;6189502;23;20407;-65
2022/12/14 16:51:25;;;;;;;52.93;41.80;;;0.30;99.90;;;;;;6217056;23;20431;-64
2022/12/14 16:53:54;;;;;;;53.37;43.23;;;0.30;99.90;;;;;;6217235;23;20392;-64
2022/12/14 16:56:23;;;;;;;59.57;48.77;;;0.30;99.90;;;;;;6217194;23;20458;-65
2022/12/14 16:58:54;;;;;;;50.40;42.50;;;0.30;99.90;;;;;;6216367;23;20424;-65
2022/12/14 17:01:22;;;;;;;54.90;43.83;;;0.30;99.90;;;;;;6216330;23;20443;-65
2022/12/14 17:04:00;;;;;;;60.03;49.60;;;0.30;99.90;;;;;;6216614;23;20776;-65
2022/12/14 17:06:35;;;;;;;63.70;48.93;;;0.30;99.90;;;;;;6216991;23;20396;-65
2022/12/14 17:09:02;;;;;;;52.40;44.07;;;0.40;99.90;;;;;;6217037;23;20391;-65
2022/12/14 17:11:29;;;;;;;62.70;48.50;;;0.40;99.90;;;;;;6216625;23;20490;-64
2022/12/14 17:13:56;;;;;;;64.13;49.40;;;0.40;99.90;;;;;;6216349;23;20415;-65
2022/12/14 17:16:22;;;;;;;57.73;46.50;;;0.40;99.90;;;;;;6216062;23;20959;-65
2022/12/14 17:18:49;;;;;;;51.23;44.00;;;0.40;99.90;;;;;;6216904;23;20439;-65
2022/12/14 17:21:22;;;;;;;44.07;39.07;;;0.40;99.90;;;;;;6216122;23;20463;-65
2022/12/14 17:23:48;;;;;;;44.60;38.60;;;0.40;99.90;;;;;;6216455;23;20403;-65
2022/12/14 17:26:21;;;;;;;45.80;39.33;;;0.40;99.90;;;;;;6216366;23;20408;-65
2022/12/14 17:28:48;;;;;;;45.43;38.13;;;0.30;99.90;;;;;;6216863;23;20408;-65
2022/12/14 17:31:16;;;;;;;43.10;35.00;;;0.30;99.90;;;;;;6218453;23;20439;-65
2022/12/14 17:33:43;;;;;;;40.83;34.97;;;0.30;99.90;;;;;;6218378;23;20408;-64
2022/12/14 17:36:09;;;;;;;41.90;36.40;;;0.30;99.90;;;;;;6219545;23;20788;-64
2022/12/14 17:38:37;;;;;;;41.00;36.43;;;0.20;99.90;;;;;;6216850;23;20482;-65
2022/12/14 17:41:06;;;;;;;44.70;37.27;;;0.30;99.90;;;;;;6216710;23;20431;-65
2022/12/14 17:43:33;;;;;;;44.53;37.17;;;0.30;99.90;;;;;;6216468;23;20415;-65
2022/12/14 17:46:01;;;;;;;44.60;38.67;;;0.30;99.90;;;;;;6216285;23;20470;-65
2022/12/14 17:48:28;;;;;;;47.47;39.90;;;0.30;99.90;;;;;;6216771;23;20408;-64
2022/12/14 17:50:55;;;;;;;45.33;39.07;;;0.30;99.90;;;;;;6216521;23;20431;-65
2022/12/14 17:53:27;;;;;;;46.37;40.47;;;0.30;99.90;;;;;;6216600;23;20820;-64